EmailTwitter


Observations de surface / France / LFBO (07630)

Régions: Québec | Canada | États-Unis | Europe | France | UK | Ailleurs
Station
Affichage
Infos & localisation pour LFBO (07630) | Aide pour décoder les METARs

Observations prises le 2019-04-20 à 02H00 UTC à TOULOUSE/BLAGNAC, FR (LFBO)

Température: 11.0 Celsius

Point de rosée: 3.0 Celsius

Humidité relative: 58%

Vents: Nord-est à 6 km/h ou 3 noeuds.

Pression au niveau moyen de la mer: 102.30 kilopascals.

Observation METAR:

LFBO 200200Z AUTO 04003KT CAVOK 11/03 Q1023 NOSIG=